createdAt,value
2022-12-18T00:01:01.979Z,12.97
2022-12-18T00:03:30.323Z,14.13
2022-12-18T00:05:57.545Z,12.20
2022-12-18T00:08:24.592Z,12.27
2022-12-18T00:10:51.240Z,11.77
2022-12-18T00:13:21.116Z,12.00
2022-12-18T00:15:47.733Z,15.50
2022-12-18T00:18:18.927Z,15.23
2022-12-18T00:20:47.183Z,16.87
2022-12-18T00:23:13.808Z,15.07
2022-12-18T00:25:41.057Z,13.57
2022-12-18T00:28:07.660Z,13.97
2022-12-18T00:30:34.225Z,14.97
2022-12-18T00:33:00.811Z,17.07
2022-12-18T00:35:27.383Z,13.40
2022-12-18T00:37:54.101Z,16.03
2022-12-18T00:40:20.891Z,17.43
2022-12-18T00:42:56.611Z,17.70
2022-12-18T00:45:25.329Z,14.43
2022-12-18T00:47:52.186Z,13.53
2022-12-18T00:50:20.507Z,16.10
2022-12-18T00:52:47.240Z,15.73
2022-12-18T00:55:14.357Z,16.97
2022-12-18T00:57:41.742Z,17.90
2022-12-18T01:00:11.581Z,17.30
2022-12-18T01:02:38.408Z,14.67
2022-12-18T01:05:07.094Z,13.10
2022-12-18T01:07:33.724Z,13.53
2022-12-18T01:10:00.326Z,12.50
2022-12-18T01:12:26.923Z,14.60
2022-12-18T01:14:53.509Z,12.73
2022-12-18T01:17:21.254Z,13.03
2022-12-18T01:19:47.859Z,13.20
2022-12-18T01:22:14.490Z,14.57
2022-12-18T01:24:41.275Z,13.90
2022-12-18T01:27:08.275Z,14.97
2022-12-18T01:29:34.896Z,14.97
2022-12-18T01:32:01.518Z,17.53
2022-12-18T01:34:30.092Z,17.33
2022-12-18T01:36:56.699Z,15.60
2022-12-18T01:39:23.581Z,15.57
2022-12-18T01:42:06.009Z,15.63
2022-12-18T01:44:59.068Z,14.47
2022-12-18T01:47:34.238Z,13.53
2022-12-18T01:50:05.186Z,17.17
2022-12-18T01:52:33.993Z,15.87
2022-12-18T01:55:02.620Z,18.43
2022-12-18T01:57:29.586Z,17.93
2022-12-18T02:00:02.545Z,17.37
2022-12-18T02:02:41.754Z,13.77
2022-12-18T02:05:09.022Z,18.03
2022-12-18T02:08:08.994Z,16.63
2022-12-18T02:10:41.870Z,17.97
2022-12-18T02:13:25.183Z,19.47
2022-12-18T02:16:10.670Z,19.63
2022-12-18T02:18:48.691Z,17.47
2022-12-18T02:21:32.793Z,16.87
2022-12-18T02:24:05.097Z,20.57
2022-12-18T02:26:38.786Z,16.87
2022-12-18T02:29:17.554Z,17.03
2022-12-18T02:31:50.637Z,15.40
2022-12-18T02:34:19.169Z,17.77
2022-12-18T02:36:48.936Z,17.93
2022-12-18T02:39:16.923Z,20.50
2022-12-18T02:41:55.628Z,18.10
2022-12-18T02:44:24.196Z,20.23
2022-12-18T02:46:53.759Z,21.37
2022-12-18T02:49:44.916Z,21.13
2022-12-18T02:53:01.850Z,18.53
2022-12-18T02:55:38.837Z,19.27
2022-12-18T02:58:19.439Z,20.70
2022-12-18T03:00:52.972Z,23.37
2022-12-18T03:03:34.889Z,20.47
2022-12-18T03:06:08.756Z,20.33
2022-12-18T03:08:40.128Z,24.43
2022-12-18T03:11:12.971Z,21.50
2022-12-18T03:13:46.056Z,20.27
2022-12-18T03:16:22.210Z,21.53
2022-12-18T03:18:52.145Z,22.67
2022-12-18T03:21:22.207Z,22.70
2022-12-18T03:23:51.751Z,21.17
2022-12-18T03:26:27.755Z,21.87
2022-12-18T03:29:05.873Z,22.23
2022-12-18T03:31:33.923Z,21.70
2022-12-18T03:34:05.240Z,22.87
2022-12-18T03:36:40.028Z,24.80
2022-12-18T03:39:07.404Z,23.07
2022-12-18T03:41:54.165Z,24.43
2022-12-18T03:44:55.925Z,24.10
2022-12-18T03:47:37.550Z,23.93
2022-12-18T03:50:23.214Z,20.13
2022-12-18T03:52:55.937Z,21.10
2022-12-18T03:55:26.669Z,24.00
2022-12-18T03:58:01.230Z,23.00
2022-12-18T04:00:36.009Z,21.47
2022-12-18T04:03:10.140Z,20.10
2022-12-18T04:05:46.673Z,19.63
2022-12-18T04:08:15.638Z,25.30
2022-12-18T04:10:49.022Z,23.70
2022-12-18T04:13:24.468Z,24.17
2022-12-18T04:15:52.216Z,20.70
2022-12-18T04:18:22.453Z,20.67
2022-12-18T04:20:49.280Z,19.77
2022-12-18T04:23:17.586Z,21.27
2022-12-18T04:25:44.190Z,20.00
2022-12-18T04:28:16.477Z,19.73
2022-12-18T04:30:43.215Z,21.57
2022-12-18T04:33:12.592Z,18.53
2022-12-18T04:35:40.468Z,22.83
2022-12-18T04:38:09.424Z,25.37
2022-12-18T04:40:36.725Z,23.17
2022-12-18T04:43:06.375Z,23.50
2022-12-18T04:45:33.607Z,24.37
2022-12-18T04:48:01.142Z,24.73
2022-12-18T04:50:28.375Z,23.33
2022-12-18T04:52:54.985Z,23.57
2022-12-18T04:55:21.902Z,22.80
2022-12-18T04:57:48.492Z,23.93
2022-12-18T05:00:15.401Z,21.30
2022-12-18T05:02:42.109Z,26.00
2022-12-18T05:05:09.106Z,20.60
2022-12-18T05:07:35.708Z,22.03
2022-12-18T05:10:02.326Z,20.40
2022-12-18T05:12:28.918Z,25.63
2022-12-18T05:14:55.494Z,24.00
2022-12-18T05:17:22.083Z,20.53
2022-12-18T05:19:48.656Z,22.73
2022-12-18T05:22:15.297Z,24.77
2022-12-18T05:24:41.910Z,25.50
2022-12-18T05:27:08.668Z,27.20
2022-12-18T05:29:35.251Z,20.63
2022-12-18T05:32:01.882Z,22.07
2022-12-18T05:34:28.465Z,22.97
2022-12-18T05:36:55.021Z,22.50
2022-12-18T05:39:21.638Z,22.93
2022-12-18T05:41:48.255Z,22.83
2022-12-18T05:44:14.840Z,23.17
2022-12-18T05:46:42.864Z,25.97
2022-12-18T05:49:10.193Z,22.27
2022-12-18T05:51:37.083Z,24.60
2022-12-18T05:54:03.876Z,23.67
2022-12-18T05:56:30.680Z,19.97
2022-12-18T05:58:57.321Z,23.50
2022-12-18T06:01:27.448Z,24.93
2022-12-18T06:03:54.700Z,23.07
2022-12-18T06:06:24.442Z,25.07
2022-12-18T06:08:51.914Z,24.73
2022-12-18T06:11:20.850Z,21.27
2022-12-18T06:13:53.571Z,23.57
2022-12-18T06:16:24.408Z,24.87
2022-12-18T06:18:51.023Z,24.87
2022-12-18T06:21:17.706Z,24.20
2022-12-18T06:23:44.616Z,25.30
2022-12-18T06:26:13.505Z,25.00
2022-12-18T06:28:40.465Z,21.13
2022-12-18T06:31:08.227Z,21.73
2022-12-18T06:33:35.840Z,20.50
2022-12-18T06:36:03.894Z,23.00
2022-12-18T06:38:30.690Z,22.63
2022-12-18T06:40:57.526Z,23.03
2022-12-18T06:43:24.354Z,24.00
2022-12-18T06:45:53.673Z,25.33
2022-12-18T06:48:20.947Z,22.53
2022-12-18T06:50:48.164Z,24.73
2022-12-18T06:53:15.165Z,25.83
2022-12-18T06:55:41.741Z,21.37
2022-12-18T06:58:08.572Z,25.23
2022-12-18T07:00:37.332Z,24.83
2022-12-18T07:03:04.046Z,22.50
2022-12-18T07:05:30.718Z,23.10
2022-12-18T07:07:57.497Z,20.37
2022-12-18T07:10:24.094Z,22.03
2022-12-18T07:12:50.670Z,22.90
2022-12-18T07:15:17.369Z,23.77
2022-12-18T07:17:43.965Z,23.37
2022-12-18T07:20:11.130Z,18.47
2022-12-18T07:22:37.733Z,24.40
2022-12-18T07:25:04.909Z,24.83
2022-12-18T07:27:31.486Z,27.83
2022-12-18T07:29:58.229Z,25.67
2022-12-18T07:32:24.827Z,25.00
2022-12-18T07:34:51.411Z,23.40
2022-12-18T07:37:17.973Z,29.30
2022-12-18T07:39:44.619Z,25.40
2022-12-18T07:42:29.831Z,24.90
2022-12-18T07:44:56.433Z,25.03
2022-12-18T07:47:23.337Z,25.03
2022-12-18T07:49:50.210Z,25.33
2022-12-18T07:52:19.294Z,27.10
2022-12-18T07:54:50.961Z,26.37
2022-12-18T07:57:48.456Z,24.00
2022-12-18T08:00:05.889Z,25.40
2022-12-18T08:02:39.212Z,24.10
2022-12-18T08:05:06.194Z,26.93
2022-12-18T08:07:33.728Z,26.13
2022-12-18T08:10:00.370Z,23.87
2022-12-18T08:12:26.929Z,25.03
2022-12-18T08:14:53.566Z,26.33
2022-12-18T08:17:21.225Z,23.83
2022-12-18T08:19:48.337Z,26.17
2022-12-18T08:22:14.911Z,24.03
2022-12-18T08:24:41.496Z,25.03
2022-12-18T08:29:54.678Z,26.23
2022-12-18T08:32:21.320Z,23.40
2022-12-18T08:34:47.934Z,25.00
2022-12-18T08:37:14.513Z,28.73
2022-12-18T08:39:41.118Z,27.17
2022-12-18T08:42:26.293Z,25.27
2022-12-18T08:44:52.870Z,27.17
2022-12-18T08:47:19.486Z,26.67
2022-12-18T08:49:46.182Z,23.57
2022-12-18T08:52:15.824Z,24.37
2022-12-18T08:54:42.419Z,27.70
2022-12-18T08:57:08.997Z,24.40
2022-12-18T08:59:35.620Z,23.33
2022-12-18T09:02:02.326Z,26.73
2022-12-18T09:04:29.034Z,26.90
2022-12-18T09:06:55.601Z,26.60
2022-12-18T09:09:22.304Z,26.70
2022-12-18T09:11:48.908Z,22.50
2022-12-18T09:14:15.488Z,23.57
2022-12-18T09:16:42.137Z,26.87
2022-12-18T09:19:10.411Z,26.60
2022-12-18T09:21:40.228Z,28.50
2022-12-18T09:24:13.378Z,22.57
2022-12-18T09:26:40.232Z,23.07
2022-12-18T09:29:08.383Z,24.07
2022-12-18T09:31:36.069Z,25.73
2022-12-18T09:34:02.691Z,26.07
2022-12-18T09:36:29.262Z,26.13
2022-12-18T09:38:55.877Z,23.07
2022-12-18T09:41:40.143Z,24.13
2022-12-18T09:44:25.301Z,25.07
2022-12-18T09:46:59.297Z,25.83
2022-12-18T09:49:30.519Z,27.03
2022-12-18T09:52:12.206Z,23.97
2022-12-18T09:54:52.334Z,25.23
2022-12-18T09:57:22.663Z,24.37
2022-12-18T09:59:56.651Z,23.97
2022-12-18T10:02:27.677Z,25.73
2022-12-18T10:05:12.213Z,23.17
2022-12-18T10:08:03.479Z,21.53
2022-12-18T10:10:53.826Z,22.50
2022-12-18T10:13:23.772Z,24.13
2022-12-18T10:16:00.065Z,24.33
2022-12-18T10:19:07.272Z,23.33
2022-12-18T10:21:57.552Z,25.17
2022-12-18T10:24:42.192Z,25.40
2022-12-18T10:27:24.604Z,23.23
2022-12-18T10:29:51.288Z,22.47
2022-12-18T10:32:21.829Z,27.63
2022-12-18T10:34:55.363Z,25.57
2022-12-18T10:37:30.571Z,22.83
2022-12-18T10:40:21.563Z,27.87
2022-12-18T10:43:13.986Z,33.53
2022-12-18T10:45:41.110Z,22.27
2022-12-18T10:48:21.889Z,32.70
2022-12-18T10:53:42.828Z,25.77
2022-12-18T10:56:09.825Z,23.40
2022-12-18T10:58:39.106Z,27.07
2022-12-18T11:01:21.232Z,24.27
2022-12-18T11:03:50.667Z,25.90
2022-12-18T11:06:20.257Z,25.47
2022-12-18T11:09:06.594Z,25.03
2022-12-18T11:11:39.134Z,25.97
2022-12-18T11:14:23.012Z,23.97
2022-12-18T11:19:42.404Z,26.10
2022-12-18T11:22:22.727Z,24.50
2022-12-18T11:25:30.230Z,22.47
2022-12-18T11:27:49.421Z,23.77
2022-12-18T11:30:29.613Z,21.63
2022-12-18T11:32:59.690Z,26.50
2022-12-18T11:35:35.820Z,25.37
2022-12-18T11:38:42.360Z,24.83
2022-12-18T11:41:51.326Z,24.70
2022-12-18T11:44:29.468Z,26.40
2022-12-18T11:47:28.287Z,24.80
2022-12-18T11:49:57.951Z,25.13
2022-12-18T11:52:28.644Z,25.40
2022-12-18T11:55:09.618Z,26.47
2022-12-18T11:57:46.609Z,28.60
2022-12-18T12:00:18.901Z,26.10
2022-12-18T12:02:51.240Z,25.17
2022-12-18T12:05:39.292Z,25.53
2022-12-18T12:08:14.907Z,27.03
2022-12-18T12:10:55.823Z,26.10
2022-12-18T12:13:56.118Z,29.00
2022-12-18T12:16:37.858Z,26.23
2022-12-18T12:19:22.633Z,27.67
2022-12-18T12:22:24.684Z,26.63
2022-12-18T12:25:00.957Z,26.17
2022-12-18T12:27:49.358Z,26.07
2022-12-18T12:30:42.952Z,26.83
2022-12-18T12:33:50.999Z,27.93
2022-12-18T12:36:35.627Z,23.50
2022-12-18T12:39:10.277Z,27.93
2022-12-18T12:41:58.023Z,26.40
2022-12-18T12:44:30.944Z,29.23
2022-12-18T12:47:01.746Z,28.20
2022-12-18T12:49:36.333Z,29.30
2022-12-18T12:52:15.649Z,28.40
2022-12-18T12:54:43.857Z,28.73
2022-12-18T12:57:17.585Z,27.23
2022-12-18T12:59:50.880Z,27.70
2022-12-18T13:02:28.974Z,28.43
2022-12-18T13:05:04.466Z,27.10
2022-12-18T13:07:39.365Z,27.20
2022-12-18T13:10:26.947Z,23.43
2022-12-18T13:12:58.261Z,26.60
2022-12-18T13:15:26.967Z,25.07
2022-12-18T13:18:05.884Z,31.50
2022-12-18T13:20:38.962Z,28.13
2022-12-18T13:23:24.646Z,29.33
2022-12-18T13:25:59.892Z,30.87
2022-12-18T13:28:48.152Z,30.33
2022-12-18T13:31:15.862Z,27.53
2022-12-18T13:34:23.929Z,30.87
2022-12-18T13:36:35.184Z,31.57
2022-12-18T13:39:18.426Z,30.20
2022-12-18T13:41:53.914Z,30.83
2022-12-18T13:44:43.202Z,32.83
2022-12-18T13:47:32.558Z,32.97
2022-12-18T13:50:00.071Z,30.83
2022-12-18T13:52:36.183Z,28.23
2022-12-18T13:55:07.982Z,28.97
2022-12-18T13:57:39.276Z,31.37
2022-12-18T14:00:29.733Z,29.77
2022-12-18T14:02:58.041Z,28.80
2022-12-18T14:05:28.339Z,32.07
2022-12-18T14:07:56.748Z,34.40
2022-12-18T14:10:47.873Z,32.73
2022-12-18T14:13:12.464Z,35.27
2022-12-18T14:15:43.530Z,33.83
2022-12-18T14:18:46.332Z,38.47
2022-12-18T14:21:30.729Z,33.17
2022-12-18T14:24:06.306Z,33.27
2022-12-18T14:26:34.233Z,34.03
2022-12-18T14:29:18.806Z,35.83
2022-12-18T14:32:06.493Z,35.57
2022-12-18T14:34:36.584Z,34.50
2022-12-18T14:37:03.175Z,32.37
2022-12-18T14:39:29.809Z,33.27
2022-12-18T14:41:56.439Z,36.73
2022-12-18T14:44:23.516Z,35.27
2022-12-18T14:46:52.072Z,35.70
2022-12-18T14:49:27.555Z,32.80
2022-12-18T14:51:56.942Z,35.83
2022-12-18T14:54:25.997Z,34.73
2022-12-18T14:57:26.257Z,36.33
2022-12-18T14:59:53.453Z,37.23
2022-12-18T15:02:26.555Z,33.83
2022-12-18T15:05:12.664Z,36.00
2022-12-18T15:07:45.957Z,37.33
2022-12-18T15:10:34.086Z,35.73
2022-12-18T15:13:01.506Z,36.10
2022-12-18T15:15:34.299Z,40.10
2022-12-18T15:18:02.499Z,39.57
2022-12-18T15:20:32.877Z,40.27
2022-12-18T15:22:59.545Z,41.90
2022-12-18T15:25:35.474Z,35.67
2022-12-18T15:28:02.150Z,42.47
2022-12-18T15:30:28.902Z,38.57
2022-12-18T15:33:25.816Z,36.60
2022-12-18T15:36:03.658Z,39.97
2022-12-18T15:38:30.390Z,42.97
2022-12-18T15:40:57.770Z,41.07
2022-12-18T15:43:34.540Z,39.23
2022-12-18T15:46:06.608Z,40.13
2022-12-18T15:48:35.620Z,43.33
2022-12-18T15:51:02.623Z,37.53
2022-12-18T15:53:33.314Z,41.87
2022-12-18T15:56:18.911Z,43.63
2022-12-18T15:58:45.505Z,37.20
2022-12-18T16:01:12.900Z,40.23
2022-12-18T16:03:40.010Z,36.57
2022-12-18T16:06:07.144Z,40.63
2022-12-18T16:08:33.855Z,41.13
2022-12-18T16:11:01.092Z,40.10
2022-12-18T16:13:27.828Z,44.93
2022-12-18T16:15:54.456Z,41.13
2022-12-18T16:18:21.142Z,39.93
2022-12-18T16:20:47.730Z,39.77
2022-12-18T16:23:14.359Z,42.23
2022-12-18T16:25:40.923Z,41.63
2022-12-18T16:28:07.534Z,41.23
2022-12-18T16:30:38.239Z,35.03
2022-12-18T16:33:05.910Z,40.80
2022-12-18T16:35:34.464Z,37.03
2022-12-18T16:38:01.121Z,42.53
2022-12-18T16:40:27.707Z,41.63
2022-12-18T16:42:54.304Z,41.33
2022-12-18T16:45:21.069Z,44.77
2022-12-18T16:47:47.724Z,40.93
2022-12-18T16:50:14.709Z,43.40
2022-12-18T16:52:41.836Z,39.63
2022-12-18T16:55:09.276Z,43.07
2022-12-18T16:57:36.107Z,39.30
2022-12-18T17:00:05.632Z,43.33
2022-12-18T17:02:32.924Z,46.57
2022-12-18T17:05:00.060Z,43.33
2022-12-18T17:07:28.374Z,43.63
2022-12-18T17:09:55.656Z,41.87
2022-12-18T17:12:23.423Z,38.80
2022-12-18T17:14:50.135Z,42.10
2022-12-18T17:17:22.756Z,43.17
2022-12-18T17:19:51.360Z,42.73
2022-12-18T17:22:18.041Z,44.77
2022-12-18T17:24:44.652Z,38.93
2022-12-18T17:27:11.365Z,40.70
2022-12-18T17:29:41.286Z,38.80
2022-12-18T17:32:13.411Z,39.67
2022-12-18T17:34:40.906Z,36.93
2022-12-18T17:37:07.943Z,39.77
2022-12-18T17:39:34.625Z,43.43
2022-12-18T17:42:01.329Z,41.80
2022-12-18T17:44:28.136Z,43.03
2022-12-18T17:46:54.797Z,38.57
2022-12-18T17:49:21.707Z,38.27
2022-12-18T17:51:48.523Z,40.10
2022-12-18T17:54:15.217Z,37.03
2022-12-18T17:56:41.805Z,41.47
2022-12-18T17:59:08.548Z,37.27
2022-12-18T18:01:38.482Z,35.43
2022-12-18T18:04:07.715Z,36.10
2022-12-18T18:06:34.508Z,37.23
2022-12-18T18:09:04.720Z,37.73
2022-12-18T18:11:50.109Z,38.80
2022-12-18T18:14:20.432Z,37.47
2022-12-18T18:16:50.391Z,40.03
2022-12-18T18:19:20.094Z,37.67
2022-12-18T18:21:48.968Z,37.23
2022-12-18T18:24:18.491Z,38.27
2022-12-18T18:26:46.770Z,37.33
2022-12-18T18:29:19.230Z,38.40
2022-12-18T18:31:45.924Z,36.53
2022-12-18T18:34:18.441Z,36.53
2022-12-18T18:36:46.303Z,35.97
2022-12-18T18:39:13.776Z,35.20
2022-12-18T18:41:40.558Z,39.47
2022-12-18T18:44:09.769Z,38.27
2022-12-18T18:46:36.463Z,38.67
2022-12-18T18:49:03.030Z,36.87
2022-12-18T18:51:34.673Z,37.47
2022-12-18T18:54:01.782Z,38.33
2022-12-18T18:59:15.227Z,36.03
2022-12-18T19:01:42.062Z,34.23
2022-12-18T19:04:08.888Z,39.53
2022-12-18T19:06:35.753Z,33.50
2022-12-18T19:09:04.826Z,35.50
2022-12-18T19:11:49.881Z,34.73
2022-12-18T19:14:16.790Z,35.87
2022-12-18T19:16:45.435Z,34.40
2022-12-18T19:19:13.302Z,35.90
2022-12-18T19:21:40.929Z,36.57
2022-12-18T19:24:07.970Z,33.03
2022-12-18T19:26:37.577Z,36.10
2022-12-18T19:29:09.639Z,34.50
2022-12-18T19:31:37.324Z,36.13
2022-12-18T19:34:07.601Z,35.50
2022-12-18T19:36:37.027Z,30.13
2022-12-18T19:39:17.917Z,31.30
2022-12-18T19:41:46.744Z,29.50
2022-12-18T19:44:15.760Z,29.70
2022-12-18T19:46:43.222Z,30.47
2022-12-18T19:49:11.162Z,34.83
2022-12-18T19:51:37.830Z,29.67
2022-12-18T19:54:05.291Z,33.30
2022-12-18T19:56:34.062Z,31.20
2022-12-18T19:59:01.216Z,31.50
2022-12-18T20:01:29.505Z,32.13
2022-12-18T20:03:57.401Z,31.17
2022-12-18T20:06:36.411Z,31.93
2022-12-18T20:09:06.515Z,35.90
2022-12-18T20:11:36.371Z,32.20
2022-12-18T20:14:10.167Z,33.90
2022-12-18T20:16:36.905Z,31.33
2022-12-18T20:19:04.063Z,32.47
2022-12-18T20:21:30.917Z,31.63
2022-12-18T20:23:59.087Z,31.10
2022-12-18T20:26:27.254Z,35.03
2022-12-18T20:28:54.685Z,29.47
2022-12-18T20:31:22.226Z,34.50
2022-12-18T20:33:51.057Z,29.50
2022-12-18T20:36:28.109Z,36.23
2022-12-18T20:39:00.559Z,32.87
2022-12-18T20:41:37.527Z,31.50
2022-12-18T20:44:22.910Z,33.23
2022-12-18T20:47:04.958Z,33.40
2022-12-18T20:49:45.115Z,31.63
2022-12-18T20:52:18.388Z,38.23
2022-12-18T20:54:46.670Z,35.97
2022-12-18T20:57:14.913Z,50.17
2022-12-18T20:59:48.147Z,42.10
2022-12-18T21:02:16.157Z,51.07
2022-12-18T21:04:43.609Z,36.93
2022-12-18T21:07:11.423Z,35.90
2022-12-18T21:09:39.339Z,37.03
2022-12-18T21:12:34.951Z,33.43
2022-12-18T21:15:11.198Z,33.17
2022-12-18T21:17:45.048Z,35.97
2022-12-18T21:20:24.371Z,33.57
2022-12-18T21:23:12.017Z,35.77
2022-12-18T21:25:47.556Z,36.73
2022-12-18T21:28:23.811Z,34.57
2022-12-18T21:30:51.333Z,35.20
2022-12-18T21:33:18.422Z,36.83
2022-12-18T21:35:47.635Z,31.73
2022-12-18T21:38:14.909Z,34.53
2022-12-18T21:40:41.622Z,38.27
2022-12-18T21:43:41.913Z,35.17
2022-12-18T21:46:08.511Z,37.53
2022-12-18T21:48:38.385Z,36.37
2022-12-18T21:51:05.060Z,38.97
2022-12-18T21:53:33.222Z,35.63
2022-12-18T21:56:00.177Z,31.60
2022-12-18T21:58:27.202Z,34.87
2022-12-18T22:00:53.847Z,34.63
2022-12-18T22:03:20.582Z,35.30
2022-12-18T22:05:49.382Z,34.37
2022-12-18T22:08:27.318Z,35.73
2022-12-18T22:10:53.945Z,31.00
2022-12-18T22:13:20.691Z,34.10
2022-12-18T22:15:47.322Z,35.30
2022-12-18T22:18:14.343Z,33.20
2022-12-18T22:20:41.329Z,33.47
2022-12-18T22:23:09.123Z,34.17
2022-12-18T22:25:36.004Z,32.17
2022-12-18T22:28:24.852Z,31.27
2022-12-18T22:30:52.517Z,32.17
2022-12-18T22:33:26.041Z,29.60
2022-12-18T22:35:52.596Z,30.60
2022-12-18T22:38:19.233Z,33.10
2022-12-18T22:40:45.802Z,33.07
2022-12-18T22:43:12.566Z,31.63
2022-12-18T22:45:39.149Z,32.17
2022-12-18T22:48:06.206Z,29.50
2022-12-18T22:50:33.809Z,30.63
2022-12-18T22:53:00.396Z,31.07
2022-12-18T22:55:26.971Z,29.97
2022-12-18T22:57:53.574Z,30.77
2022-12-18T23:00:24.114Z,30.90
2022-12-18T23:02:57.508Z,30.90
2022-12-18T23:05:26.886Z,31.97
2022-12-18T23:07:53.445Z,32.57
2022-12-18T23:10:20.249Z,28.13
2022-12-18T23:12:46.851Z,33.30
2022-12-18T23:15:13.634Z,29.63
2022-12-18T23:17:42.718Z,30.77
2022-12-18T23:20:09.812Z,28.20
2022-12-18T23:22:36.364Z,31.23
2022-12-18T23:25:02.945Z,32.40
2022-12-18T23:27:29.666Z,32.37
2022-12-18T23:29:56.353Z,32.47
2022-12-18T23:32:25.300Z,31.07
2022-12-18T23:34:51.881Z,31.27
2022-12-18T23:37:49.803Z,30.97
2022-12-18T23:40:05.605Z,31.73
2022-12-18T23:42:32.218Z,31.37
2022-12-18T23:44:58.826Z,35.33
2022-12-18T23:47:26.505Z,30.70
2022-12-18T23:49:53.097Z,31.47
2022-12-18T23:52:19.933Z,34.67
2022-12-18T23:54:46.507Z,31.20
2022-12-18T23:57:13.102Z,30.50
2022-12-18T23:59:39.717Z,31.00
